Time;durP1;ratioP1;P1;durP2;ratioP2;P2;SDS_P1;SDS_P2;PMS_P1;PMS_P2;Temp;Humidity;BMP_temperature;BMP_pressure;BME280_temperature;BME280_humidity;BME280_pressure;Samples;Min_cycle;Max_cycle;Signal;HPM_P1;HPM_P2
2021/05/03 00:00:14;;;;;;;4.88;3.65;;;7.20;66.10;;;;;;5088730;28;20051;-88
2021/05/03 00:02:40;;;;;;;4.78;3.50;;;7.20;66.10;;;;;;5076015;28;20036;-87
2021/05/03 00:05:07;;;;;;;5.47;3.50;;;7.10;66.00;;;;;;5067474;28;20499;-89
2021/05/03 00:07:32;;;;;;;7.25;3.70;;;7.10;66.20;;;;;;5086736;28;20044;-88
2021/05/03 00:09:58;;;;;;;6.28;3.53;;;7.10;66.20;;;;;;5103222;28;20058;-89
2021/05/03 00:12:24;;;;;;;5.20;3.40;;;7.10;66.20;;;;;;5088030;28;20039;-89
2021/05/03 00:14:50;;;;;;;5.38;4.22;;;7.10;66.30;;;;;;5082255;28;20044;-89
2021/05/03 00:17:17;;;;;;;4.97;3.83;;;7.10;66.40;;;;;;5084439;28;20036;-88
2021/05/03 00:19:43;;;;;;;4.90;3.85;;;7.10;66.40;;;;;;5049576;28;20057;-88
2021/05/03 00:22:09;;;;;;;5.80;3.80;;;7.10;66.50;;;;;;5054299;28;20047;-88
2021/05/03 00:24:35;;;;;;;6.20;3.50;;;7.10;66.60;;;;;;5063037;28;20036;-89
2021/05/03 00:27:00;;;;;;;7.18;3.60;;;7.00;66.60;;;;;;5081311;28;20888;-88
2021/05/03 00:29:26;;;;;;;5.68;3.33;;;7.00;66.70;;;;;;5051179;28;20044;-87
2021/05/03 00:31:52;;;;;;;4.68;3.70;;;7.00;66.70;;;;;;5044028;28;20040;-86
2021/05/03 00:34:18;;;;;;;5.13;3.75;;;6.90;66.80;;;;;;5061360;28;20048;-86
2021/05/03 00:36:44;;;;;;;6.68;3.85;;;6.90;66.80;;;;;;5090969;28;20079;-86
2021/05/03 00:39:10;;;;;;;5.90;3.92;;;6.90;66.90;;;;;;5102248;28;20126;-89
2021/05/03 00:41:36;;;;;;;6.47;3.75;;;6.90;67.00;;;;;;5120510;28;20044;-87
2021/05/03 00:44:02;;;;;;;4.68;3.75;;;7.00;67.00;;;;;;5101687;28;20186;-87
2021/05/03 00:46:28;;;;;;;4.40;3.28;;;7.00;67.10;;;;;;5100122;28;20043;-86
2021/05/03 00:48:54;;;;;;;5.28;3.97;;;7.00;67.20;;;;;;5099172;28;20039;-87
2021/05/03 00:51:20;;;;;;;5.78;3.53;;;7.00;67.20;;;;;;5100245;28;20079;-86
2021/05/03 00:53:46;;;;;;;5.10;3.15;;;7.00;67.30;;;;;;5116922;28;20051;-88
2021/05/03 00:56:11;;;;;;;5.45;3.25;;;7.00;67.40;;;;;;5117929;28;20372;-87
2021/05/03 00:58:37;;;;;;;6.10;3.17;;;7.00;67.30;;;;;;5118835;28;20035;-88
2021/05/03 01:01:03;;;;;;;4.80;2.95;;;7.10;67.40;;;;;;5084598;28;20085;-87
2021/05/03 01:03:29;;;;;;;4.75;3.15;;;7.10;67.30;;;;;;5084855;28;20081;-88
2021/05/03 01:05:55;;;;;;;5.68;3.17;;;7.00;67.20;;;;;;5118143;28;20044;-88
2021/05/03 01:08:20;;;;;;;3.78;2.78;;;7.10;67.20;;;;;;5101824;28;20049;-88
2021/05/03 01:10:46;;;;;;;6.22;2.55;;;7.10;67.30;;;;;;5119220;28;20044;-84
2021/05/03 01:13:12;;;;;;;4.45;2.88;;;7.10;67.20;;;;;;5102388;28;20039;-87
2021/05/03 01:15:38;;;;;;;3.95;2.70;;;7.10;67.10;;;;;;5102436;28;20055;-88
2021/05/03 01:18:04;;;;;;;5.57;3.45;;;7.10;67.20;;;;;;5118327;28;20694;-87
2021/05/03 01:20:34;;;;;;;5.88;3.00;;;7.10;67.30;;;;;;5085666;28;20067;-87
2021/05/03 01:23:00;;;;;;;5.05;3.40;;;7.10;67.30;;;;;;5084304;28;20069;-88
2021/05/03 01:25:31;;;;;;;5.22;3.13;;;7.10;67.20;;;;;;5119457;28;20043;-90
2021/05/03 01:27:57;;;;;;;5.30;3.20;;;7.10;67.30;;;;;;5098219;28;20044;-87
2021/05/03 01:30:34;;;;;;;6.10;3.55;;;7.20;67.50;;;;;;5065651;28;20139;-88
2021/05/03 01:33:01;;;;;;;5.53;3.03;;;7.10;67.40;;;;;;5080878;28;20052;-90
2021/05/03 01:35:27;;;;;;;4.60;3.08;;;7.10;67.30;;;;;;5081754;28;20133;-88
2021/05/03 01:37:54;;;;;;;5.82;3.22;;;7.10;67.10;;;;;;5068033;28;20447;-87
2021/05/03 01:40:20;;;;;;;5.68;3.15;;;7.20;67.60;;;;;;5101999;28;20063;-89
2021/05/03 01:42:46;;;;;;;4.78;2.88;;;7.10;67.70;;;;;;5085536;28;20077;-90
2021/05/03 01:45:13;;;;;;;5.15;3.28;;;7.10;67.50;;;;;;5101829;28;20044;-88
2021/05/03 01:47:39;;;;;;;4.85;3.22;;;7.20;67.90;;;;;;5116010;28;20103;-85
2021/05/03 01:50:06;;;;;;;4.03;3.08;;;7.20;68.10;;;;;;5119818;28;20047;-84
2021/05/03 01:52:33;;;;;;;5.13;3.25;;;7.20;68.10;;;;;;5120088;28;20042;-90
2021/05/03 01:54:59;;;;;;;5.45;3.40;;;7.20;68.30;;;;;;5117186;28;20051;-90
2021/05/03 01:57:25;;;;;;;5.68;3.47;;;7.10;68.40;;;;;;5098934;28;20063;-89
2021/05/03 01:59:53;;;;;;;6.28;4.75;;;7.10;68.40;;;;;;5094796;28;20055;-82
2021/05/03 02:02:18;;;;;;;5.75;3.22;;;7.20;68.40;;;;;;5104667;28;20048;-89
2021/05/03 02:04:44;;;;;;;5.38;3.47;;;7.20;68.50;;;;;;5087010;28;20111;-87
2021/05/03 02:07:13;;;;;;;7.03;3.30;;;7.10;68.40;;;;;;5102829;28;20063;-89
2021/05/03 02:09:42;;;;;;;5.78;3.40;;;7.20;68.50;;;;;;5102333;28;20050;-90
2021/05/03 02:12:08;;;;;;;5.28;3.65;;;7.20;68.70;;;;;;5118266;28;20039;-88
2021/05/03 02:14:35;;;;;;;7.43;3.70;;;7.20;68.70;;;;;;5102888;28;20132;-90
2021/05/03 02:17:01;;;;;;;5.63;3.90;;;7.20;68.60;;;;;;5084546;28;20059;-88
2021/05/03 02:19:27;;;;;;;6.75;4.38;;;7.20;68.70;;;;;;5119094;28;20043;-89
2021/05/03 02:21:53;;;;;;;6.00;4.47;;;7.10;68.70;;;;;;5118468;28;20472;-83
2021/05/03 02:24:18;;;;;;;7.20;3.88;;;7.20;68.80;;;;;;5118169;28;20051;-89
2021/05/03 02:26:44;;;;;;;5.43;3.97;;;7.10;68.60;;;;;;5118799;28;20043;-89
2021/05/03 02:29:10;;;;;;;5.68;4.20;;;7.10;68.80;;;;;;5118997;28;20038;-88
2021/05/03 02:31:35;;;;;;;5.85;4.28;;;7.10;68.80;;;;;;5101237;28;20050;-89
2021/05/03 02:34:01;;;;;;;6.90;4.55;;;7.20;69.00;;;;;;5084446;28;20063;-89
2021/05/03 02:36:27;;;;;;;5.00;3.97;;;7.10;68.80;;;;;;5100980;28;20112;-88
2021/05/03 02:38:53;;;;;;;6.60;4.15;;;7.10;68.90;;;;;;5084727;28;20059;-90
2021/05/03 02:41:19;;;;;;;5.88;4.07;;;7.10;69.00;;;;;;5101025;28;20048;-89
2021/05/03 02:43:44;;;;;;;6.68;4.30;;;7.20;69.20;;;;;;5084463;28;20047;-88
2021/05/03 02:46:10;;;;;;;6.30;4.55;;;7.20;69.20;;;;;;5084037;28;20047;-89
2021/05/03 02:48:36;;;;;;;7.15;3.70;;;7.20;69.20;;;;;;5100532;28;20044;-88
2021/05/03 02:51:02;;;;;;;6.05;4.70;;;7.10;69.40;;;;;;5083195;28;20059;-88
2021/05/03 02:53:28;;;;;;;6.15;4.88;;;7.20;69.40;;;;;;5101185;28;20047;-88
2021/05/03 02:55:54;;;;;;;6.57;4.20;;;7.10;69.60;;;;;;5084674;28;20052;-90
2021/05/03 02:58:20;;;;;;;6.80;4.57;;;7.20;69.60;;;;;;5119652;28;20481;-89
2021/05/03 03:00:46;;;;;;;5.10;3.78;;;7.20;69.50;;;;;;5120710;28;20044;-89
2021/05/03 03:03:11;;;;;;;6.40;4.38;;;7.20;69.60;;;;;;5102202;28;20043;-86
2021/05/03 03:05:37;;;;;;;8.23;4.75;;;7.20;69.60;;;;;;5118507;28;20047;-86
2021/05/03 03:08:04;;;;;;;6.35;4.28;;;7.20;69.40;;;;;;5066928;28;20055;-84
2021/05/03 03:10:30;;;;;;;6.40;4.55;;;7.20;69.50;;;;;;5112079;28;20100;-85
2021/05/03 03:12:57;;;;;;;6.03;4.82;;;7.20;69.90;;;;;;5081987;28;20040;-87
2021/05/03 03:15:25;;;;;;;6.18;4.00;;;7.20;69.90;;;;;;5063692;28;20139;-89
2021/05/03 03:17:51;;;;;;;6.13;4.07;;;7.20;69.90;;;;;;5096782;28;20064;-87
2021/05/03 03:20:17;;;;;;;6.25;4.65;;;7.30;70.00;;;;;;5097634;28;20044;-90
2021/05/03 03:22:43;;;;;;;6.60;4.50;;;7.20;70.00;;;;;;5063847;28;20044;-86
2021/05/03 03:25:09;;;;;;;9.90;4.97;;;7.20;69.90;;;;;;5096339;28;20051;-86
2021/05/03 03:27:36;;;;;;;8.02;4.53;;;7.20;70.10;;;;;;5080559;28;20036;-87
2021/05/03 03:30:06;;;;;;;6.45;4.90;;;7.30;70.40;;;;;;5097225;28;20044;-83
2021/05/03 03:32:32;;;;;;;7.07;5.13;;;7.30;70.50;;;;;;5080510;28;20040;-87
2021/05/03 03:34:58;;;;;;;7.07;4.80;;;7.30;70.70;;;;;;5064441;28;20512;-86
2021/05/03 03:37:23;;;;;;;7.00;5.38;;;7.30;70.90;;;;;;5097162;28;20067;-87
2021/05/03 03:39:49;;;;;;;7.95;5.20;;;7.30;71.20;;;;;;5081948;28;20044;-86
2021/05/03 03:42:15;;;;;;;6.38;5.32;;;7.30;71.20;;;;;;5081262;28;20036;-86
2021/05/03 03:44:41;;;;;;;7.63;5.43;;;7.30;71.30;;;;;;5084192;28;20052;-87
2021/05/03 03:47:07;;;;;;;9.07;5.95;;;7.30;71.50;;;;;;5084472;28;20123;-83
2021/05/03 03:49:33;;;;;;;7.60;5.75;;;7.30;71.50;;;;;;5102040;28;20040;-88
2021/05/03 03:51:58;;;;;;;10.10;6.18;;;7.30;71.40;;;;;;5085030;28;20431;-87
2021/05/03 03:54:25;;;;;;;8.68;6.40;;;7.20;71.50;;;;;;5084295;28;20161;-87
2021/05/03 03:56:51;;;;;;;9.32;6.20;;;7.30;71.80;;;;;;5085075;28;20535;-88
2021/05/03 03:59:16;;;;;;;9.73;6.18;;;7.30;71.50;;;;;;5068594;28;20051;-88
2021/05/03 04:01:44;;;;;;;9.50;7.40;;;7.30;71.70;;;;;;5103563;28;20548;-86
2021/05/03 04:04:15;;;;;;;9.23;6.90;;;7.30;71.70;;;;;;5101809;28;20049;-83
2021/05/03 04:06:49;;;;;;;9.07;6.97;;;7.40;71.60;;;;;;5086282;28;20047;-86
2021/05/03 04:23:10;;;;;;;11.73;10.32;;;7.50;71.80;;;;;;5101937;28;20042;-86
2021/05/03 04:25:40;;;;;;;12.05;9.95;;;7.40;71.80;;;;;;5072545;28;20405;-86
2021/05/03 04:28:06;;;;;;;10.23;8.60;;;7.40;71.80;;;;;;5102368;28;20048;-85
2021/05/03 04:30:32;;;;;;;11.00;9.60;;;7.40;71.50;;;;;;5101890;28;20278;-88
2021/05/03 04:33:01;;;;;;;10.50;8.90;;;7.40;71.70;;;;;;5101419;28;20051;-86
2021/05/03 04:35:26;;;;;;;9.82;8.80;;;7.40;71.60;;;;;;5101367;28;20044;-87
2021/05/03 04:37:52;;;;;;;10.05;8.95;;;7.40;71.30;;;;;;5068242;28;20055;-89
2021/05/03 04:40:18;;;;;;;11.90;9.27;;;7.40;71.40;;;;;;5084798;28;20393;-90
2021/05/03 04:42:44;;;;;;;13.73;9.13;;;7.50;71.40;;;;;;5101383;28;20051;-87
2021/05/03 04:45:11;;;;;;;9.85;8.85;;;7.50;71.50;;;;;;5084859;28;20050;-88
2021/05/03 04:47:41;;;;;;;11.73;9.35;;;7.50;71.20;;;;;;5100993;28;20067;-88
2021/05/03 04:50:07;;;;;;;11.25;9.27;;;7.50;71.30;;;;;;5085231;28;20048;-87
2021/05/03 04:52:34;;;;;;;11.93;10.18;;;7.50;71.10;;;;;;5084303;28;20060;-88
2021/05/03 04:55:01;;;;;;;10.32;9.23;;;7.50;71.00;;;;;;5068667;28;20051;-89
2021/05/03 04:57:26;;;;;;;11.85;8.45;;;7.50;71.20;;;;;;5084378;28;20043;-86
2021/05/03 04:59:52;;;;;;;9.82;8.82;;;7.50;71.20;;;;;;5101819;28;20079;-89
2021/05/03 05:02:18;;;;;;;10.43;8.35;;;7.60;71.10;;;;;;5084696;28;20059;-84
2021/05/03 05:04:44;;;;;;;11.27;9.35;;;7.50;71.10;;;;;;5103208;28;20043;-86
2021/05/03 05:07:09;;;;;;;13.45;9.10;;;7.60;71.30;;;;;;5112797;28;20046;-86
2021/05/03 05:09:35;;;;;;;10.45;9.15;;;7.50;71.10;;;;;;5120610;28;20043;-87
2021/05/03 05:12:01;;;;;;;11.32;9.45;;;7.60;71.20;;;;;;5095746;28;20586;-85
2021/05/03 05:14:27;;;;;;;11.32;9.90;;;7.60;71.10;;;;;;5110585;27;20130;-85
2021/05/03 05:16:53;;;;;;;11.07;9.32;;;7.50;71.00;;;;;;5125263;27;20032;-86
2021/05/03 05:19:18;;;;;;;11.10;9.77;;;7.60;71.10;;;;;;5133053;27;20042;-82
2021/05/03 05:21:44;;;;;;;12.05;10.27;;;7.60;71.00;;;;;;5104857;28;20077;-88
2021/05/03 05:24:10;;;;;;;15.05;11.10;;;7.60;71.00;;;;;;5067459;28;20040;-86
2021/05/03 05:26:36;;;;;;;13.30;10.18;;;7.60;70.80;;;;;;5083011;28;20074;-87
2021/05/03 05:29:02;;;;;;;11.52;10.15;;;7.60;70.80;;;;;;5083345;28;20047;-85
2021/05/03 05:31:28;;;;;;;12.82;10.95;;;7.60;70.80;;;;;;5082473;28;20438;-86
2021/05/03 05:33:54;;;;;;;12.52;11.20;;;7.70;70.60;;;;;;5090077;28;20128;-89
2021/05/03 05:36:20;;;;;;;13.93;11.65;;;7.70;71.30;;;;;;5100824;28;20052;-83
2021/05/03 05:38:46;;;;;;;13.63;11.48;;;7.70;70.70;;;;;;5082864;28;20058;-86
2021/05/03 05:41:14;;;;;;;14.52;10.93;;;7.70;70.60;;;;;;5089351;27;20058;-91
2021/05/03 05:43:43;;;;;;;14.13;12.35;;;7.70;70.50;;;;;;5086444;28;20215;-81
2021/05/03 05:46:09;;;;;;;15.63;12.30;;;7.80;70.30;;;;;;5116047;28;20148;-80
2021/05/03 05:48:35;;;;;;;15.05;13.38;;;7.80;70.70;;;;;;5100675;28;20097;-83
2021/05/03 05:51:02;;;;;;;16.77;13.23;;;7.80;70.60;;;;;;5085177;28;20645;-85
2021/05/03 05:53:30;;;;;;;16.38;13.73;;;7.90;70.60;;;;;;5064302;28;20494;-86
2021/05/03 05:55:59;;;;;;;13.88;12.25;;;7.80;71.30;;;;;;5066447;28;20040;-83
2021/05/03 05:58:28;;;;;;;15.38;13.68;;;7.90;70.90;;;;;;5101301;28;20060;-78
2021/05/03 06:01:01;;;;;;;15.52;13.70;;;8.00;70.40;;;;;;5084602;28;20066;-88
2021/05/03 06:03:26;;;;;;;16.75;13.10;;;8.00;70.40;;;;;;5096681;28;20503;-82
2021/05/03 06:05:52;;;;;;;16.50;13.73;;;7.90;70.20;;;;;;5106609;28;20040;-87
2021/05/03 06:08:20;;;;;;;15.50;13.50;;;8.00;70.20;;;;;;5110148;28;20481;-84
2021/05/03 06:10:46;;;;;;;15.45;12.13;;;8.00;70.00;;;;;;5086864;28;20039;-79
2021/05/03 06:13:12;;;;;;;18.02;14.63;;;8.00;70.30;;;;;;5113166;28;20040;-85
2021/05/03 06:15:38;;;;;;;16.30;14.60;;;8.00;70.50;;;;;;5115005;28;20039;-86
2021/05/03 06:18:05;;;;;;;16.92;13.85;;;8.10;70.10;;;;;;5090033;28;20430;-93
2021/05/03 06:20:31;;;;;;;19.40;15.27;;;8.00;70.00;;;;;;5099212;28;20084;-79
2021/05/03 06:23:03;;;;;;;17.95;14.98;;;8.00;69.90;;;;;;5112398;28;20131;-93
2021/05/03 06:25:29;;;;;;;16.02;14.32;;;8.10;70.00;;;;;;5088800;28;20043;-81
2021/05/03 06:27:55;;;;;;;17.75;14.40;;;8.00;69.80;;;;;;5090309;28;20051;-93
2021/05/03 06:30:23;;;;;;;17.48;15.52;;;8.10;69.80;;;;;;5123027;28;20043;-93
2021/05/03 06:32:49;;;;;;;19.23;15.27;;;8.10;69.70;;;;;;5089306;28;20063;-94
2021/05/03 06:35:15;;;;;;;16.38;14.32;;;8.10;69.70;;;;;;5105569;28;20046;-87
2021/05/03 06:37:41;;;;;;;18.45;15.32;;;8.10;69.60;;;;;;5122195;28;20059;-94
2021/05/03 06:40:07;;;;;;;18.52;16.52;;;8.10;69.60;;;;;;5123279;28;20048;-93
2021/05/03 06:42:34;;;;;;;19.45;15.88;;;8.10;69.80;;;;;;5073080;28;20142;-86
2021/05/03 06:44:59;;;;;;;19.95;16.48;;;8.20;69.70;;;;;;5106070;28;20115;-91
2021/05/03 06:47:28;;;;;;;18.85;16.83;;;8.20;69.60;;;;;;5123160;28;20046;-91
2021/05/03 06:49:53;;;;;;;20.35;16.33;;;8.20;69.60;;;;;;5121910;28;20036;-90
2021/05/03 06:52:19;;;;;;;19.42;17.33;;;8.20;69.50;;;;;;5088022;28;20071;-93
2021/05/03 06:54:45;;;;;;;19.05;16.13;;;8.20;69.30;;;;;;5104799;28;20103;-92
2021/05/03 06:57:12;;;;;;;18.17;16.27;;;8.30;69.30;;;;;;5092592;28;20095;-88
2021/05/03 06:59:39;;;;;;;20.25;16.90;;;8.30;69.20;;;;;;5127968;28;20055;-90
2021/05/03 07:02:05;;;;;;;20.48;16.58;;;8.40;69.20;;;;;;5091870;28;20047;-91
2021/05/03 07:04:32;;;;;;;24.05;18.80;;;8.40;69.30;;;;;;5109125;28;20055;-83
2021/05/03 07:06:57;;;;;;;21.88;17.98;;;8.40;69.10;;;;;;5112024;28;20048;-93
2021/05/03 07:09:23;;;;;;;21.92;16.90;;;8.50;69.10;;;;;;5093146;28;20077;-89
2021/05/03 07:11:51;;;;;;;20.60;18.40;;;8.50;69.00;;;;;;5122194;28;20112;-91
2021/05/03 07:14:17;;;;;;;19.58;16.88;;;8.50;69.00;;;;;;5088531;28;20040;-88
2021/05/03 07:16:42;;;;;;;20.77;17.85;;;8.60;69.00;;;;;;5104915;28;20555;-92
2021/05/03 07:19:08;;;;;;;21.45;19.15;;;8.60;68.90;;;;;;5123208;28;20043;-88
2021/05/03 07:21:36;;;;;;;21.88;19.52;;;8.70;69.00;;;;;;5112148;28;20115;-82
2021/05/03 07:24:03;;;;;;;22.10;19.20;;;8.70;69.10;;;;;;5079055;28;20453;-92
2021/05/03 07:26:29;;;;;;;22.42;19.13;;;8.80;69.00;;;;;;5130362;28;20035;-92
2021/05/03 07:28:54;;;;;;;24.38;19.63;;;8.80;69.00;;;;;;5097637;28;20103;-86
2021/05/03 07:31:20;;;;;;;23.38;20.70;;;8.90;69.00;;;;;;5109152;28;20040;-91
2021/05/03 07:33:46;;;;;;;23.38;20.88;;;8.90;69.10;;;;;;5108146;28;20048;-95
2021/05/03 07:36:12;;;;;;;27.15;22.90;;;8.90;69.10;;;;;;5074755;28;20067;-88
2021/05/03 07:38:38;;;;;;;26.63;21.65;;;9.00;69.10;;;;;;5072950;28;20051;-79
2021/05/03 07:41:03;;;;;;;24.63;21.27;;;9.10;69.30;;;;;;5108708;28;20052;-94
2021/05/03 07:43:29;;;;;;;28.77;23.42;;;9.10;69.40;;;;;;5090750;28;20043;-92
2021/05/03 07:45:55;;;;;;;26.08;23.23;;;9.10;69.60;;;;;;5107443;28;20456;-91
2021/05/03 07:48:22;;;;;;;25.67;22.73;;;9.10;69.70;;;;;;5108318;28;20050;-93
2021/05/03 07:50:48;;;;;;;28.38;24.08;;;9.20;70.00;;;;;;5090008;28;20063;-92
2021/05/03 07:53:14;;;;;;;26.83;23.52;;;9.20;70.10;;;;;;5124849;28;20485;-93
2021/05/03 07:55:39;;;;;;;33.00;29.15;;;9.20;70.30;;;;;;5124391;28;20051;-83
2021/05/03 07:58:07;;;;;;;37.40;31.17;;;9.30;70.40;;;;;;5090651;28;20071;-92
2021/05/03 08:00:32;;;;;;;35.15;30.63;;;9.20;70.30;;;;;;5090717;28;20062;-91
2021/05/03 08:02:58;;;;;;;35.38;30.67;;;9.30;70.40;;;;;;5123200;28;20192;-90
2021/05/03 08:05:24;;;;;;;35.80;29.73;;;9.30;70.40;;;;;;5090363;28;20103;-92
2021/05/03 08:07:50;;;;;;;32.45;28.95;;;9.40;70.30;;;;;;5089444;28;20066;-91
2021/05/03 08:10:16;;;;;;;35.63;30.80;;;9.50;70.40;;;;;;5106937;28;20043;-92
2021/05/03 08:12:44;;;;;;;35.78;31.83;;;9.50;70.40;;;;;;5108833;28;20051;-83
2021/05/03 08:15:13;;;;;;;37.70;30.90;;;9.50;70.50;;;;;;5093467;28;20048;-92
2021/05/03 08:17:42;;;;;;;36.10;27.70;;;9.60;70.60;;;;;;5075613;28;20043;-89
2021/05/03 08:20:08;;;;;;;35.78;28.80;;;9.60;70.60;;;;;;5106742;28;20138;-91
2021/05/03 08:22:34;;;;;;;39.22;31.75;;;9.60;70.50;;;;;;5106997;28;20047;-94
2021/05/03 08:25:00;;;;;;;37.33;30.05;;;9.70;70.50;;;;;;5089111;28;20044;-91
2021/05/03 08:27:26;;;;;;;39.60;30.83;;;9.70;70.60;;;;;;5073437;28;20157;-88
2021/05/03 08:29:54;;;;;;;42.72;32.45;;;9.80;70.80;;;;;;5106109;28;20067;-92
2021/05/03 08:32:20;;;;;;;40.00;32.05;;;9.90;71.00;;;;;;5123149;28;20051;-91
2021/05/03 08:34:46;;;;;;;40.15;31.75;;;10.00;71.10;;;;;;5107153;28;20119;-84
2021/05/03 08:37:12;;;;;;;41.78;33.35;;;10.00;71.00;;;;;;5124331;28;20075;-88
2021/05/03 08:39:41;;;;;;;38.60;32.40;;;10.10;71.10;;;;;;5072658;28;20083;-88
2021/05/03 08:42:08;;;;;;;41.03;33.22;;;10.20;70.90;;;;;;5072411;28;20120;-89
2021/05/03 08:44:37;;;;;;;41.15;33.00;;;10.20;70.80;;;;;;5073174;28;20036;-89
2021/05/03 08:47:03;;;;;;;41.30;33.78;;;10.30;70.70;;;;;;5072761;28;20051;-93
2021/05/03 08:49:43;;;;;;;42.55;35.20;;;10.40;70.60;;;;;;5090254;28;20487;-89
2021/05/03 08:54:41;;;;;;;42.50;35.40;;;10.50;70.50;;;;;;5090685;28;20047;-90
2021/05/03 08:57:08;;;;;;;42.58;34.85;;;10.60;70.30;;;;;;5088588;28;20204;-88
2021/05/03 08:59:36;;;;;;;45.80;35.50;;;10.70;70.20;;;;;;5071987;28;20158;-88
2021/05/03 09:02:05;;;;;;;46.00;35.53;;;10.70;70.20;;;;;;5072250;28;20063;-90
2021/05/03 09:04:31;;;;;;;44.72;34.95;;;10.80;70.00;;;;;;5074847;28;20607;-92
2021/05/03 09:07:11;;;;;;;42.03;34.33;;;10.90;69.80;;;;;;5074470;28;20035;-86
2021/05/03 09:09:41;;;;;;;44.22;36.50;;;11.00;70.10;;;;;;5099346;28;20098;-88
2021/05/03 09:12:34;;;;;;;40.75;33.38;;;11.00;70.10;;;;;;5108664;28;20043;-86
2021/05/03 09:15:02;;;;;;;45.38;36.55;;;11.10;69.90;;;;;;5109448;28;20035;-85
2021/05/03 09:17:29;;;;;;;45.45;36.00;;;11.20;69.50;;;;;;5077047;28;20039;-95
2021/05/03 09:19:55;;;;;;;44.90;35.60;;;11.40;69.20;;;;;;5073260;28;20123;-91
2021/05/03 09:22:52;;;;;;;43.38;35.35;;;11.40;69.10;;;;;;5089399;28;20048;-91
2021/05/03 09:25:37;;;;;;;40.63;34.78;;;11.50;69.00;;;;;;5086510;28;20059;-93
2021/05/03 09:28:21;;;;;;;46.38;37.25;;;11.60;68.50;;;;;;5074703;28;20043;-92
2021/05/03 09:30:48;;;;;;;42.53;34.55;;;11.60;68.20;;;;;;5090402;28;20050;-90
2021/05/03 09:33:15;;;;;;;39.22;34.85;;;11.70;68.10;;;;;;5071836;28;20051;-89
2021/05/03 09:35:48;;;;;;;41.53;33.38;;;11.80;68.00;;;;;;5106360;28;20044;-90
2021/05/03 09:38:36;;;;;;;40.53;34.58;;;11.80;67.70;;;;;;5116620;28;20051;-86
2021/05/03 09:41:14;;;;;;;37.83;33.10;;;11.90;67.40;;;;;;5121099;28;20066;-88
2021/05/03 09:43:50;;;;;;;38.45;33.53;;;12.00;67.20;;;;;;5105940;28;20040;-88
2021/05/03 09:46:39;;;;;;;37.67;33.55;;;12.00;66.90;;;;;;5089846;28;20467;-89
2021/05/03 09:49:16;;;;;;;36.30;32.47;;;12.10;66.60;;;;;;5122121;28;20078;-91
2021/05/03 09:51:56;;;;;;;37.55;33.55;;;12.20;66.60;;;;;;5072808;28;20054;-92
2021/05/03 09:54:29;;;;;;;37.33;31.80;;;12.30;66.50;;;;;;5105420;28;20044;-87
2021/05/03 09:57:03;;;;;;;37.67;33.30;;;12.40;66.40;;;;;;5071485;28;20059;-84
2021/05/03 09:59:44;;;;;;;37.28;33.38;;;12.60;65.90;;;;;;5121820;28;20038;-90
2021/05/03 10:05:18;;;;;;;35.33;31.60;;;12.80;65.30;;;;;;5106667;28;20476;-92
2021/05/03 10:07:52;;;;;;;37.97;34.08;;;12.90;64.90;;;;;;5107164;28;20039;-88
2021/05/03 10:10:20;;;;;;;35.85;32.00;;;13.10;64.80;;;;;;5090295;28;20047;-94
2021/05/03 10:12:46;;;;;;;39.30;34.47;;;13.10;64.40;;;;;;5086998;28;20071;-91
2021/05/03 10:15:14;;;;;;;22.27;19.98;;;13.30;64.30;;;;;;5068919;28;20048;-82
2021/05/03 10:17:41;;;;;;;18.88;17.00;;;13.40;63.80;;;;;;5065174;28;20055;-83
2021/05/03 10:20:14;;;;;;;22.13;19.92;;;13.60;62.70;;;;;;5065559;28;20039;-83
2021/05/03 10:22:39;;;;;;;20.27;17.98;;;13.80;61.70;;;;;;5066329;28;20097;-85
2021/05/03 10:25:10;;;;;;;19.58;17.02;;;14.00;61.00;;;;;;5049178;28;20453;-82
2021/05/03 10:27:39;;;;;;;24.38;19.30;;;14.10;60.40;;;;;;5065657;28;20122;-72
2021/05/03 10:30:18;;;;;;;32.55;29.25;;;14.30;60.00;;;;;;5055578;28;20056;-83
2021/05/03 10:33:00;;;;;;;34.50;30.98;;;14.30;59.30;;;;;;5117473;27;20075;-82
2021/05/03 10:35:27;;;;;;;33.53;30.03;;;14.20;59.00;;;;;;5108007;28;20192;-81
2021/05/03 10:37:54;;;;;;;35.15;31.58;;;14.10;59.50;;;;;;5106651;28;20038;-82
2021/05/03 10:40:20;;;;;;;34.22;30.75;;;14.10;59.60;;;;;;5101201;28;20039;-87
2021/05/03 10:43:09;;;;;;;33.85;30.48;;;14.00;59.60;;;;;;5116522;28;20078;-75
2021/05/03 10:46:52;;;;;;;31.33;28.02;;;14.00;59.40;;;;;;5105931;28;20047;-83
2021/05/03 10:49:19;;;;;;;33.80;30.30;;;14.10;59.40;;;;;;5099857;28;20048;-84
2021/05/03 10:52:05;;;;;;;32.55;28.90;;;14.10;59.50;;;;;;5092617;28;20114;-81
2021/05/03 10:57:08;;;;;;;34.80;31.23;;;14.40;59.70;;;;;;5110301;28;20047;-76
2021/05/03 10:59:48;;;;;;;32.90;29.70;;;14.50;59.60;;;;;;5097923;28;20094;-84
2021/05/03 11:02:15;;;;;;;30.60;27.52;;;14.70;59.40;;;;;;5101923;28;20040;-85
2021/05/03 11:05:13;;;;;;;32.95;29.80;;;14.80;59.10;;;;;;5086476;28;20114;-87
2021/05/03 11:08:04;;;;;;;29.90;26.98;;;15.00;58.50;;;;;;5088209;28;20052;-84
2021/05/03 11:10:55;;;;;;;31.08;28.15;;;15.10;58.00;;;;;;5104199;28;20313;-91
2021/05/03 11:13:45;;;;;;;33.97;30.52;;;15.20;57.20;;;;;;5102772;28;20044;-84
2021/05/03 11:16:30;;;;;;;29.63;26.52;;;15.20;56.50;;;;;;5069685;28;20056;-80
2021/05/03 11:18:57;;;;;;;27.40;24.60;;;15.40;56.80;;;;;;5103614;28;20036;-88
2021/05/03 11:21:41;;;;;;;28.48;25.88;;;15.50;56.70;;;;;;5053068;28;20044;-89
2021/05/03 11:24:20;;;;;;;29.13;26.27;;;15.50;55.70;;;;;;5106280;28;20067;-83
2021/05/03 11:26:49;;;;;;;29.98;27.02;;;15.50;55.30;;;;;;5090498;28;20381;-85
2021/05/03 11:29:19;;;;;;;28.65;25.85;;;15.40;55.70;;;;;;5087617;28;20044;-87
2021/05/03 11:31:47;;;;;;;29.75;26.60;;;15.30;55.90;;;;;;5086546;28;20040;-86
2021/05/03 11:34:21;;;;;;;19.45;17.45;;;15.10;56.50;;;;;;5068362;28;20048;-84
2021/05/03 11:36:56;;;;;;;11.02;9.93;;;14.80;57.20;;;;;;5086851;28;20051;-82
2021/05/03 11:39:57;;;;;;;11.00;9.90;;;14.60;57.70;;;;;;5094110;28;20508;-83
2021/05/03 11:42:59;;;;;;;8.60;7.55;;;14.20;58.10;;;;;;5100086;28;20086;-84
2021/05/03 11:45:30;;;;;;;9.07;7.43;;;13.90;59.30;;;;;;5100104;28;20048;-83
2021/05/03 11:47:57;;;;;;;7.00;5.85;;;13.60;60.20;;;;;;5117014;28;20059;-83
2021/05/03 11:50:24;;;;;;;8.93;8.05;;;13.40;60.20;;;;;;5100938;28;20044;-83
2021/05/03 11:52:50;;;;;;;9.23;7.97;;;13.20;60.70;;;;;;5104655;28;20177;-81
2021/05/03 11:55:18;;;;;;;11.82;8.48;;;13.00;61.00;;;;;;5087549;28;20055;-76
2021/05/03 11:57:45;;;;;;;8.35;6.78;;;12.70;61.70;;;;;;5087117;28;20416;-81
2021/05/03 12:00:24;;;;;;;8.57;6.50;;;12.60;62.80;;;;;;5104867;28;20051;-80
2021/05/03 12:03:14;;;;;;;7.20;6.47;;;12.50;63.00;;;;;;5106624;28;20385;-82
2021/05/03 12:05:40;;;;;;;7.45;5.55;;;12.30;63.20;;;;;;5105153;28;20047;-85
2021/05/03 12:08:14;;;;;;;7.05;6.35;;;12.10;63.10;;;;;;5105581;28;20159;-82
2021/05/03 12:10:40;;;;;;;9.27;6.95;;;12.00;63.70;;;;;;5088294;28;20066;-82
2021/05/03 12:13:15;;;;;;;8.20;7.30;;;11.80;64.30;;;;;;5104890;28;20050;-82
2021/05/03 12:15:43;;;;;;;10.30;8.55;;;11.60;64.80;;;;;;5089705;28;20125;-81
2021/05/03 12:18:09;;;;;;;10.15;7.40;;;11.50;65.90;;;;;;5105084;28;20111;-84
2021/05/03 12:20:35;;;;;;;9.50;7.65;;;11.40;67.60;;;;;;5087267;28;20120;-84
2021/05/03 12:23:07;;;;;;;8.60;7.70;;;11.30;69.10;;;;;;5105011;28;20456;-84
2021/05/03 12:25:38;;;;;;;9.45;8.45;;;11.20;70.10;;;;;;5088737;28;20043;-82
2021/05/03 12:28:15;;;;;;;9.00;7.38;;;11.10;70.30;;;;;;5123230;28;20052;-84
2021/05/03 12:31:01;;;;;;;8.02;7.22;;;11.10;71.40;;;;;;5104446;28;20031;-82
2021/05/03 12:33:27;;;;;;;9.23;7.25;;;11.00;72.20;;;;;;5075319;28;20146;-85
2021/05/03 12:35:56;;;;;;;8.13;7.32;;;10.90;73.00;;;;;;5104875;28;20070;-85
2021/05/03 12:38:27;;;;;;;8.75;7.47;;;10.80;73.30;;;;;;5104085;28;20115;-84
2021/05/03 12:40:53;;;;;;;8.02;7.07;;;10.70;74.30;;;;;;5088358;28;20059;-86
2021/05/03 12:43:23;;;;;;;7.65;6.70;;;10.70;74.80;;;;;;5087677;28;20055;-83
2021/05/03 12:48:47;;;;;;;7.85;6.50;;;10.80;75.40;;;;;;5121672;28;20038;-86
2021/05/03 12:51:39;;;;;;;6.35;5.75;;;10.80;75.70;;;;;;5091687;28;20040;-85
2021/05/03 12:54:13;;;;;;;8.20;7.40;;;10.90;76.10;;;;;;5121975;28;20059;-86
2021/05/03 12:59:45;;;;;;;10.15;9.15;;;10.90;75.50;;;;;;5104584;28;20055;-84
2021/05/03 13:05:39;;;;;;;10.07;8.55;;;10.70;76.60;;;;;;5108192;28;20076;-87
2021/05/03 13:11:06;;;;;;;10.95;7.85;;;10.70;77.10;;;;;;5087396;28;20051;-87
2021/05/03 13:22:44;;;;;;;3.85;2.92;;;11.20;77.40;;;;;;5101723;28;20070;-84
2021/05/03 13:28:08;;;;;;;4.15;3.63;;;12.50;76.20;;;;;;5076748;28;20067;-77
2021/05/03 13:30:38;;;;;;;5.70;4.68;;;13.30;74.20;;;;;;5096599;28;20060;-79
2021/05/03 13:33:05;;;;;;;8.50;7.70;;;13.90;72.80;;;;;;5077796;28;20100;-86
2021/05/03 13:35:30;;;;;;;9.55;8.57;;;14.20;72.40;;;;;;5101801;28;20091;-87
2021/05/03 13:37:56;;;;;;;10.98;9.88;;;14.30;72.40;;;;;;5069065;28;20084;-90